createdAt,value
2019-05-16T00:00:30.410Z,92.88
2019-05-16T00:03:18.756Z,89.45
2019-05-16T00:06:08.573Z,82.12
2019-05-16T00:09:00.039Z,79.37
2019-05-16T00:11:48.777Z,314.15
2019-05-16T00:14:38.586Z,146.28
2019-05-16T00:17:28.425Z,167.43
2019-05-16T00:20:19.110Z,154.07
2019-05-16T00:23:07.901Z,152.10
2019-05-16T00:25:58.442Z,128.87
2019-05-16T00:28:48.306Z,223.97
2019-05-16T00:31:38.195Z,368.77
2019-05-16T00:34:27.958Z,227.05
2019-05-16T00:37:18.205Z,144.87
2019-05-16T00:40:08.216Z,143.00
2019-05-16T00:42:58.961Z,138.18
2019-05-16T00:45:48.595Z,139.32
2019-05-16T00:48:38.162Z,126.15
2019-05-16T00:51:28.705Z,132.27
2019-05-16T00:54:18.576Z,128.32
2019-05-16T00:57:08.491Z,124.20
2019-05-16T00:59:59.036Z,147.80
2019-05-16T01:02:48.588Z,369.18
2019-05-16T01:05:38.769Z,265.75
2019-05-16T01:08:28.130Z,183.37
2019-05-16T01:11:18.977Z,183.78
2019-05-16T01:14:08.491Z,191.63
2019-05-16T01:16:58.096Z,178.10
2019-05-16T01:19:48.450Z,195.28
2019-05-16T01:22:38.593Z,181.07
2019-05-16T01:25:28.203Z,166.77
2019-05-16T01:28:19.811Z,166.43
2019-05-16T01:31:08.959Z,150.42
2019-05-16T01:33:58.335Z,146.37
2019-05-16T01:36:48.597Z,143.35
2019-05-16T01:39:38.225Z,141.43
2019-05-16T01:42:27.840Z,134.15
2019-05-16T01:45:18.870Z,123.05
2019-05-16T01:48:08.199Z,122.53
2019-05-16T01:50:58.378Z,120.02
2019-05-16T01:53:48.633Z,115.55
2019-05-16T01:56:38.560Z,117.40
2019-05-16T01:59:28.389Z,112.12
2019-05-16T02:02:18.354Z,110.22
2019-05-16T02:05:08.408Z,113.32
2019-05-16T02:07:58.393Z,102.25
2019-05-16T02:10:47.952Z,101.65
2019-05-16T02:13:38.897Z,100.72
2019-05-16T02:16:27.856Z,99.77
2019-05-16T02:19:18.652Z,97.82
2019-05-16T02:22:08.763Z,95.28
2019-05-16T02:24:58.543Z,86.78
2019-05-16T02:27:48.926Z,85.77
2019-05-16T02:30:37.906Z,85.97
2019-05-16T02:33:25.999Z,87.33
2019-05-16T02:36:14.556Z,80.72
2019-05-16T02:39:03.251Z,79.00
2019-05-16T02:41:52.117Z,75.25
2019-05-16T02:44:41.242Z,73.12
2019-05-16T02:47:51.328Z,70.75
2019-05-16T02:50:41.512Z,72.53
2019-05-16T02:53:30.970Z,69.65
2019-05-16T02:56:21.300Z,69.72
2019-05-16T02:59:11.972Z,66.65
2019-05-16T03:02:01.101Z,65.12
2019-05-16T03:04:51.795Z,64.00
2019-05-16T03:07:45.956Z,64.27
2019-05-16T03:10:31.492Z,61.70
2019-05-16T03:13:22.006Z,59.90
2019-05-16T03:16:11.727Z,60.50
2019-05-16T03:19:03.030Z,61.00
2019-05-16T03:21:51.578Z,58.10
2019-05-16T03:24:42.060Z,57.10
2019-05-16T03:27:30.573Z,57.70
2019-05-16T03:30:23.860Z,55.65
2019-05-16T03:33:19.056Z,53.45
2019-05-16T03:36:04.763Z,53.52
2019-05-16T03:38:50.757Z,51.50
2019-05-16T03:41:41.519Z,52.50
2019-05-16T03:44:31.674Z,52.25
2019-05-16T03:47:21.911Z,49.88
2019-05-16T03:50:11.308Z,51.18
2019-05-16T03:53:01.519Z,49.75
2019-05-16T03:55:51.596Z,51.02
2019-05-16T03:58:41.766Z,49.77
2019-05-16T04:01:31.330Z,49.75
2019-05-16T04:04:21.299Z,47.03
2019-05-16T04:07:11.195Z,48.45
2019-05-16T04:10:02.258Z,46.15
2019-05-16T04:12:51.355Z,45.95
2019-05-16T04:15:40.841Z,45.98
2019-05-16T04:18:31.952Z,45.83
2019-05-16T04:21:22.282Z,43.55
2019-05-16T04:24:12.458Z,43.75
2019-05-16T04:27:01.269Z,44.65
2019-05-16T04:29:51.395Z,43.75
2019-05-16T04:32:41.882Z,44.13
2019-05-16T04:35:31.673Z,42.93
2019-05-16T04:38:31.523Z,43.55
2019-05-16T04:41:11.502Z,42.15
2019-05-16T04:44:01.580Z,41.85
2019-05-16T04:46:50.983Z,43.23
2019-05-16T04:49:41.226Z,42.67
2019-05-16T04:52:30.669Z,41.83
2019-05-16T04:55:21.054Z,41.73
2019-05-16T04:58:10.576Z,42.13
2019-05-16T05:01:01.534Z,40.67
2019-05-16T05:04:01.654Z,40.35
2019-05-16T05:06:40.690Z,40.08
2019-05-16T05:09:31.590Z,40.78
2019-05-16T05:12:20.822Z,40.38
2019-05-16T05:15:11.238Z,40.08
2019-05-16T05:18:00.654Z,43.23
2019-05-16T05:20:52.250Z,41.02
2019-05-16T05:23:40.697Z,40.88
2019-05-16T05:26:30.555Z,42.25
2019-05-16T05:29:20.027Z,40.15
2019-05-16T05:32:14.030Z,42.88
2019-05-16T05:34:59.903Z,588.72
2019-05-16T05:37:50.788Z,343.05
2019-05-16T05:40:40.481Z,160.70
2019-05-16T05:43:30.539Z,147.80
2019-05-16T05:46:20.470Z,155.50
2019-05-16T05:49:10.454Z,147.20
2019-05-16T05:52:00.832Z,149.18
2019-05-16T05:54:50.284Z,242.87
2019-05-16T05:57:40.576Z,333.27
2019-05-16T06:00:41.000Z,356.80
2019-05-16T06:03:34.599Z,289.42
2019-05-16T06:06:23.190Z,196.25
2019-05-16T06:09:25.344Z,178.65
2019-05-16T06:12:01.272Z,197.45
2019-05-16T06:14:50.441Z,200.15
2019-05-16T06:17:40.151Z,198.00
2019-05-16T06:20:30.741Z,188.60
2019-05-16T06:23:20.597Z,195.30
2019-05-16T06:26:11.850Z,218.75
2019-05-16T06:29:00.679Z,493.45
2019-05-16T06:31:49.667Z,231.50
2019-05-16T06:34:40.426Z,238.43
2019-05-16T06:37:30.939Z,240.90
2019-05-16T06:40:20.266Z,260.38
2019-05-16T06:43:10.949Z,231.47
2019-05-16T06:46:00.587Z,231.40
2019-05-16T06:48:50.667Z,227.18
2019-05-16T06:51:40.666Z,209.70
2019-05-16T06:54:29.870Z,191.30
2019-05-16T06:57:20.627Z,191.62
2019-05-16T07:00:10.804Z,180.70
2019-05-16T07:03:00.392Z,174.75
2019-05-16T07:05:50.435Z,164.80
2019-05-16T07:08:40.283Z,158.60
2019-05-16T07:11:30.492Z,152.55
2019-05-16T07:14:22.529Z,143.62
2019-05-16T07:17:09.715Z,138.82
2019-05-16T07:20:00.536Z,135.35
2019-05-16T07:22:50.302Z,132.05
2019-05-16T07:25:40.630Z,128.05
2019-05-16T07:28:30.025Z,123.75
2019-05-16T07:31:19.890Z,117.77
2019-05-16T07:34:10.438Z,117.40
2019-05-16T07:37:00.463Z,115.47
2019-05-16T07:39:51.129Z,112.35
2019-05-16T07:42:40.330Z,109.37
2019-05-16T07:45:30.838Z,104.25
2019-05-16T07:48:21.863Z,101.50
2019-05-16T07:51:10.683Z,98.62
2019-05-16T07:54:01.187Z,95.87
2019-05-16T07:56:57.353Z,91.57
2019-05-16T07:59:40.482Z,89.75
2019-05-16T08:02:31.279Z,88.70
2019-05-16T08:05:21.015Z,90.67
2019-05-16T08:08:10.544Z,83.55
2019-05-16T08:11:01.391Z,83.33
2019-05-16T08:13:50.742Z,82.40
2019-05-16T08:16:40.963Z,79.85
2019-05-16T08:19:30.788Z,78.62
2019-05-16T08:22:22.182Z,78.87
2019-05-16T08:25:10.656Z,76.15
2019-05-16T08:28:01.150Z,73.30
2019-05-16T08:30:52.836Z,72.50
2019-05-16T08:36:31.313Z,72.40
2019-05-16T08:39:21.404Z,70.80
2019-05-16T08:42:13.199Z,67.58
2019-05-16T08:45:01.838Z,65.90
2019-05-16T08:50:11.536Z,65.22
2019-05-16T08:50:42.039Z,68.33
2019-05-16T08:53:31.650Z,66.85
2019-05-16T08:56:22.048Z,63.40
2019-05-16T08:59:13.504Z,64.17
2019-05-16T09:02:03.303Z,62.88
2019-05-16T09:04:53.449Z,62.17
2019-05-16T09:07:40.090Z,61.08
2019-05-16T09:10:31.460Z,73.05
2019-05-16T09:10:55.722Z,60.25
2019-05-16T09:13:18.364Z,62.03
2019-05-16T09:16:29.228Z,58.68
2019-05-16T09:19:16.932Z,58.85
2019-05-16T09:22:08.158Z,58.13
2019-05-16T09:24:57.644Z,55.50
2019-05-16T09:27:49.143Z,56.75
2019-05-16T09:30:37.309Z,55.28
2019-05-16T09:33:27.048Z,55.50
2019-05-16T09:36:17.415Z,53.95
2019-05-16T09:39:08.503Z,54.83
2019-05-16T09:41:58.741Z,53.83
2019-05-16T09:44:47.740Z,54.60
2019-05-16T09:47:38.908Z,52.90
2019-05-16T09:50:26.982Z,53.15
2019-05-16T09:53:16.996Z,50.63
2019-05-16T09:56:07.063Z,49.27
2019-05-16T09:58:57.240Z,48.58
2019-05-16T10:01:47.487Z,63.33
2019-05-16T10:04:36.800Z,47.48
2019-05-16T10:07:28.334Z,49.30
2019-05-16T10:10:17.122Z,47.05
2019-05-16T10:13:06.833Z,47.15
2019-05-16T10:15:55.274Z,47.38
2019-05-16T10:18:43.797Z,46.80
2019-05-16T10:21:32.359Z,45.98
2019-05-16T10:24:20.979Z,46.73
2019-05-16T10:27:09.169Z,46.00
2019-05-16T10:30:01.261Z,44.30
2019-05-16T10:32:47.804Z,44.03
2019-05-16T10:35:37.316Z,45.03
2019-05-16T10:38:28.544Z,44.23
2019-05-16T10:41:15.891Z,44.95
2019-05-16T10:44:06.138Z,43.63
2019-05-16T10:46:53.800Z,43.42
2019-05-16T10:49:42.346Z,43.02
2019-05-16T10:52:30.933Z,42.80
2019-05-16T10:55:19.582Z,42.05
2019-05-16T10:58:07.923Z,41.80
2019-05-16T11:01:24.265Z,42.83
2019-05-16T11:03:48.969Z,43.33
2019-05-16T11:06:37.263Z,43.10
2019-05-16T11:09:25.854Z,41.33
2019-05-16T11:12:19.929Z,40.48
2019-05-16T11:15:10.835Z,41.77
2019-05-16T11:20:48.998Z,39.88
2019-05-16T11:23:36.752Z,39.92
2019-05-16T11:26:29.878Z,39.58
2019-05-16T11:29:16.512Z,41.02
2019-05-16T11:32:06.980Z,39.70
2019-05-16T11:34:54.819Z,39.00
2019-05-16T11:37:43.423Z,39.23
2019-05-16T11:40:31.672Z,38.45
2019-05-16T11:43:21.870Z,38.90
2019-05-16T11:46:10.127Z,38.48
2019-05-16T11:48:58.399Z,39.03
2019-05-16T11:51:47.241Z,40.12
2019-05-16T11:54:37.464Z,39.15
2019-05-16T11:57:25.709Z,38.98
2019-05-16T12:00:17.789Z,40.45
2019-05-16T12:03:04.770Z,38.55
2019-05-16T12:05:53.338Z,39.23
2019-05-16T12:08:41.611Z,39.45
2019-05-16T12:11:29.861Z,39.10
2019-05-16T12:14:18.206Z,39.27
2019-05-16T12:17:07.450Z,38.88
2019-05-16T12:19:57.529Z,38.45
2019-05-16T12:22:46.102Z,38.15
2019-05-16T12:25:36.698Z,39.27
2019-05-16T12:28:23.889Z,38.63
2019-05-16T12:31:12.095Z,37.80
2019-05-16T12:34:00.479Z,37.98
2019-05-16T12:36:48.599Z,39.38
2019-05-16T12:39:37.828Z,38.75
2019-05-16T12:42:27.033Z,38.17
2019-05-16T12:45:15.791Z,40.25
2019-05-16T12:48:06.637Z,38.00
2019-05-16T12:50:53.997Z,37.28
2019-05-16T12:53:42.298Z,37.98
2019-05-16T12:56:30.708Z,38.38
2019-05-16T12:59:21.658Z,38.08
2019-05-16T13:02:08.727Z,38.95
2019-05-16T13:04:57.526Z,38.50
2019-05-16T13:07:47.635Z,37.75
2019-05-16T13:10:37.951Z,37.25
2019-05-16T13:13:27.775Z,37.85
2019-05-16T13:16:16.751Z,37.78
2019-05-16T13:19:07.040Z,38.88
2019-05-16T13:21:57.731Z,38.78
2019-05-16T13:24:47.872Z,37.08
2019-05-16T13:27:37.259Z,37.78
2019-05-16T13:30:26.822Z,39.55
2019-05-16T13:33:17.865Z,38.05
2019-05-16T13:36:07.479Z,37.75
2019-05-16T13:38:57.457Z,37.83
2019-05-16T13:41:46.031Z,37.90
2019-05-16T13:44:34.620Z,37.85
2019-05-16T13:47:23.030Z,37.33
2019-05-16T13:50:12.631Z,37.23
2019-05-16T13:53:00.983Z,38.48
2019-05-16T13:55:49.487Z,36.98
2019-05-16T13:58:37.813Z,38.05
2019-05-16T14:01:27.821Z,37.98
2019-05-16T14:04:17.351Z,36.88
2019-05-16T14:07:07.581Z,37.33
2019-05-16T14:09:57.876Z,38.80
2019-05-16T14:12:50.085Z,37.45
2019-05-16T14:15:36.932Z,39.67
2019-05-16T14:18:27.217Z,37.28
2019-05-16T14:21:18.162Z,37.80
2019-05-16T14:24:08.706Z,37.50
2019-05-16T14:26:57.428Z,37.98
2019-05-16T14:29:47.673Z,37.03
2019-05-16T14:32:40.733Z,38.02
2019-05-16T14:35:26.781Z,37.67
2019-05-16T14:38:17.701Z,37.85
2019-05-16T14:41:08.011Z,38.45
2019-05-16T14:43:55.947Z,37.63
2019-05-16T14:46:47.280Z,37.58
2019-05-16T14:49:34.038Z,37.05
2019-05-16T14:52:22.245Z,42.03
2019-05-16T14:55:11.043Z,40.73
2019-05-16T14:58:00.047Z,38.98
2019-05-16T15:00:49.409Z,38.33
2019-05-16T15:03:37.636Z,36.95
2019-05-16T15:06:27.540Z,578.83
2019-05-16T15:09:17.762Z,294.95
2019-05-16T15:12:06.879Z,122.82
2019-05-16T15:14:58.678Z,97.47
2019-05-16T15:17:47.601Z,105.50
2019-05-16T15:20:35.763Z,271.45
2019-05-16T15:23:24.113Z,586.17
2019-05-16T15:26:12.583Z,290.10
2019-05-16T15:29:00.991Z,210.78
2019-05-16T15:31:49.321Z,212.20
2019-05-16T15:34:38.177Z,244.22
2019-05-16T15:37:27.376Z,236.32
2019-05-16T15:40:17.709Z,223.97
2019-05-16T15:43:08.033Z,230.80
2019-05-16T15:46:00.456Z,374.25
2019-05-16T15:48:48.825Z,330.80
2019-05-16T15:51:37.664Z,265.65
2019-05-16T15:54:28.565Z,273.32
2019-05-16T15:57:17.936Z,281.35
2019-05-16T16:00:10.464Z,272.95
2019-05-16T16:02:57.545Z,595.77
2019-05-16T16:05:45.991Z,414.27
2019-05-16T16:08:37.863Z,354.27
2019-05-16T16:11:28.827Z,335.80
2019-05-16T16:14:17.434Z,328.07
2019-05-16T16:17:07.152Z,332.52
2019-05-16T16:19:57.783Z,326.62
2019-05-16T16:22:46.991Z,325.50
2019-05-16T16:25:36.325Z,319.57
2019-05-16T16:28:26.941Z,317.48
2019-05-16T16:31:16.612Z,305.15
2019-05-16T16:34:07.525Z,300.75
2019-05-16T16:36:57.307Z,289.12
2019-05-16T16:39:47.181Z,284.67
2019-05-16T16:42:37.417Z,275.93
2019-05-16T16:45:27.260Z,268.93
2019-05-16T16:48:17.115Z,259.05
2019-05-16T16:51:06.617Z,242.37
2019-05-16T16:53:57.032Z,238.75
2019-05-16T16:56:47.361Z,240.18
2019-05-16T16:59:37.101Z,220.52
2019-05-16T17:02:27.810Z,222.50
2019-05-16T17:05:17.018Z,211.87
2019-05-16T17:08:07.665Z,202.10
2019-05-16T17:10:57.577Z,196.63
2019-05-16T17:13:47.274Z,189.18
2019-05-16T17:16:37.732Z,188.10
2019-05-16T17:19:25.855Z,183.72
2019-05-16T17:22:19.920Z,176.00
2019-05-16T17:25:08.915Z,170.02
2019-05-16T17:27:58.383Z,169.15
2019-05-16T17:30:47.166Z,160.15
2019-05-16T17:33:38.280Z,157.47
2019-05-16T17:36:26.598Z,155.37
2019-05-16T17:39:15.270Z,153.12
2019-05-16T17:42:03.746Z,149.50
2019-05-16T17:44:52.016Z,147.53
2019-05-16T17:47:40.586Z,144.55
2019-05-16T17:50:28.972Z,236.37
2019-05-16T17:53:17.517Z,427.65
2019-05-16T17:56:06.851Z,210.82
2019-05-16T17:58:56.925Z,221.50
2019-05-16T18:01:46.302Z,526.55
2019-05-16T18:04:37.099Z,550.80
2019-05-16T18:07:24.449Z,356.35
2019-05-16T18:10:12.958Z,295.82
2019-05-16T18:13:01.695Z,303.52
2019-05-16T18:15:50.131Z,602.05
2019-05-16T18:18:38.413Z,325.22
2019-05-16T18:21:26.781Z,411.12
2019-05-16T18:24:16.803Z,370.90
2019-05-16T18:27:06.656Z,355.98
2019-05-16T18:29:55.362Z,351.15
2019-05-16T18:32:43.711Z,712.83
2019-05-16T18:35:31.951Z,668.48
2019-05-16T18:38:22.450Z,409.57
2019-05-16T18:41:11.179Z,371.32
2019-05-16T18:43:59.964Z,381.93
2019-05-16T18:46:48.251Z,374.62
2019-05-16T18:49:36.821Z,371.25
2019-05-16T18:52:25.405Z,359.80
2019-05-16T18:55:14.175Z,368.02
2019-05-16T18:58:04.774Z,419.97
2019-05-16T19:00:53.196Z,491.00
2019-05-16T19:03:41.474Z,509.85
2019-05-16T19:06:29.783Z,294.27
2019-05-16T19:09:18.250Z,320.52
2019-05-16T19:12:06.744Z,290.65
2019-05-16T19:14:57.108Z,261.10
2019-05-16T19:17:45.681Z,231.07
2019-05-16T19:20:34.220Z,231.00
2019-05-16T19:23:22.594Z,227.25
2019-05-16T19:26:11.102Z,229.70
2019-05-16T19:28:59.780Z,393.30
2019-05-16T19:31:50.473Z,522.55
2019-05-16T19:34:37.972Z,345.00
2019-05-16T19:37:26.690Z,319.55
2019-05-16T19:40:17.206Z,307.07
2019-05-16T19:43:07.254Z,799.62
2019-05-16T19:45:58.711Z,768.40
2019-05-16T19:48:47.312Z,502.32
2019-05-16T19:51:37.473Z,407.35
2019-05-16T19:54:29.151Z,386.85
2019-05-16T19:57:18.339Z,343.45
2019-05-16T20:00:10.660Z,339.35
2019-05-16T20:02:58.780Z,335.88
2019-05-16T20:05:48.954Z,325.98
2019-05-16T20:08:37.597Z,348.43
2019-05-16T20:11:27.675Z,413.30
2019-05-16T20:14:19.586Z,438.55
2019-05-16T20:17:07.480Z,412.62
2019-05-16T20:19:58.161Z,408.05
2019-05-16T20:22:46.672Z,403.62
2019-05-16T20:25:36.501Z,419.50
2019-05-16T20:28:26.659Z,481.97
2019-05-16T20:31:17.080Z,734.00
2019-05-16T20:34:08.981Z,471.33
2019-05-16T20:36:57.194Z,462.30
2019-05-16T20:39:46.583Z,469.40
2019-05-16T20:42:36.909Z,673.97
2019-05-16T20:45:27.157Z,622.92
2019-05-16T20:48:18.422Z,643.17
2019-05-16T20:51:07.209Z,655.48
2019-05-16T20:54:08.884Z,575.83
2019-05-16T20:56:57.385Z,579.58
2019-05-16T20:59:46.323Z,555.73
2019-05-16T21:02:37.837Z,552.52
2019-05-16T21:05:26.791Z,580.77
2019-05-16T21:08:17.189Z,615.20
2019-05-16T21:11:06.484Z,646.37
2019-05-16T21:13:56.576Z,488.95
2019-05-16T21:17:01.153Z,480.60
2019-05-16T21:19:48.349Z,486.52
2019-05-16T21:22:37.326Z,461.92
2019-05-16T21:25:30.041Z,458.87
2019-05-16T21:28:19.851Z,460.25
2019-05-16T21:31:08.925Z,438.33
2019-05-16T21:33:58.447Z,431.73
2019-05-16T21:36:46.930Z,410.82
2019-05-16T21:39:36.935Z,406.17
2019-05-16T21:42:27.144Z,396.15
2019-05-16T21:45:15.719Z,385.88
2019-05-16T21:48:04.065Z,431.43
2019-05-16T21:50:52.176Z,407.15
2019-05-16T21:53:40.343Z,416.00
2019-05-16T21:56:29.023Z,412.68
2019-05-16T21:59:17.248Z,416.92
2019-05-16T22:02:05.933Z,411.05
2019-05-16T22:04:56.861Z,411.23
2019-05-16T22:07:47.414Z,393.17
2019-05-16T22:10:37.312Z,382.48
2019-05-16T22:13:27.239Z,378.10
2019-05-16T22:16:17.594Z,373.90
2019-05-16T22:19:07.074Z,362.93
2019-05-16T22:21:56.424Z,351.95
2019-05-16T22:24:46.175Z,341.90
2019-05-16T22:27:35.308Z,343.10
2019-05-16T22:30:23.891Z,330.15
2019-05-16T22:33:12.586Z,323.30
2019-05-16T22:36:00.883Z,313.45
2019-05-16T22:38:49.152Z,312.85
2019-05-16T22:41:37.418Z,306.15
2019-05-16T22:44:27.113Z,296.75
2019-05-16T22:47:17.125Z,295.50
2019-05-16T22:50:27.182Z,286.30
2019-05-16T22:53:17.272Z,281.47
2019-05-16T22:56:07.466Z,269.43
2019-05-16T22:58:56.428Z,271.73
2019-05-16T23:04:36.619Z,267.05
2019-05-16T23:07:27.295Z,252.35
2019-05-16T23:10:36.607Z,245.05
2019-05-16T23:13:26.400Z,247.88
2019-05-16T23:16:14.309Z,235.45
2019-05-16T23:19:02.603Z,230.03
2019-05-16T23:21:51.203Z,232.05
2019-05-16T23:24:39.760Z,218.57
2019-05-16T23:27:28.410Z,224.12
2019-05-16T23:30:18.814Z,216.15
2019-05-16T23:33:07.417Z,207.95
2019-05-16T23:35:57.530Z,208.55
2019-05-16T23:38:47.417Z,199.57
2019-05-16T23:41:36.720Z,196.55
2019-05-16T23:44:25.458Z,198.62
2019-05-16T23:47:13.650Z,200.00
2019-05-16T23:50:02.037Z,183.97
2019-05-16T23:52:50.409Z,183.95
2019-05-16T23:55:38.642Z,179.53
2019-05-16T23:58:26.892Z,171.72
